createdAt,value
2018-04-22T00:01:38.169Z,60.80
2018-04-22T00:04:05.684Z,60.70
2018-04-22T00:06:33.157Z,61.20
2018-04-22T00:09:00.662Z,59.70
2018-04-22T00:11:28.921Z,60.80
2018-04-22T00:13:56.433Z,60.70
2018-04-22T00:16:23.937Z,61.10
2018-04-22T00:18:51.453Z,61.40
2018-04-22T00:21:18.933Z,61.80
2018-04-22T00:23:46.468Z,62.80
2018-04-22T00:26:13.949Z,63.10
2018-04-22T00:28:41.477Z,61.60
2018-04-22T00:31:08.965Z,62.50
2018-04-22T00:33:36.475Z,62.60
2018-04-22T00:36:04.729Z,63.70
2018-04-22T00:38:33.005Z,63.20
2018-04-22T00:41:00.485Z,63.20
2018-04-22T00:43:28.031Z,61.90
2018-04-22T00:45:55.484Z,60.80
2018-04-22T00:48:23.774Z,59.80
2018-04-22T00:50:51.262Z,59.70
2018-04-22T00:53:18.768Z,59.40
2018-04-22T00:55:46.240Z,61.00
2018-04-22T00:58:14.496Z,61.90
2018-04-22T01:00:41.999Z,61.90
2018-04-22T01:03:09.549Z,62.40
2018-04-22T01:05:37.801Z,62.30
2018-04-22T01:08:05.306Z,62.20
2018-04-22T01:10:32.817Z,62.20
2018-04-22T01:13:00.326Z,61.50
2018-04-22T01:15:27.836Z,61.00
2018-04-22T01:17:55.341Z,61.10
2018-04-22T01:20:22.842Z,62.20
2018-04-22T01:22:50.337Z,62.90
2018-04-22T01:25:17.855Z,63.60
2018-04-22T01:27:45.350Z,63.40
2018-04-22T01:30:12.839Z,62.90
2018-04-22T01:32:40.329Z,63.60
2018-04-22T01:35:08.582Z,64.30
2018-04-22T01:37:36.081Z,64.30
2018-04-22T01:40:03.597Z,63.10
2018-04-22T01:42:31.105Z,63.30
2018-04-22T01:44:59.377Z,62.40
2018-04-22T01:47:26.877Z,62.30
2018-04-22T01:49:54.442Z,62.30
2018-04-22T01:52:21.935Z,63.50
2018-04-22T01:54:49.429Z,63.60
2018-04-22T01:57:17.689Z,63.00
2018-04-22T01:59:45.210Z,63.00
2018-04-22T02:02:12.705Z,63.80
2018-04-22T02:04:40.964Z,63.40
2018-04-22T02:07:08.455Z,63.40
2018-04-22T02:09:35.961Z,64.10
2018-04-22T02:12:03.505Z,64.20
2018-04-22T02:14:31.721Z,63.70
2018-04-22T02:16:59.208Z,63.70
2018-04-22T02:19:26.737Z,63.60
2018-04-22T02:21:54.272Z,64.10
2018-04-22T02:24:21.769Z,61.80
2018-04-22T02:26:50.054Z,62.40
2018-04-22T02:29:18.322Z,64.40
2018-04-22T02:31:46.601Z,63.90
2018-04-22T02:34:14.858Z,64.10
2018-04-22T02:36:42.351Z,64.00
2018-04-22T02:39:09.868Z,64.20
2018-04-22T02:41:37.364Z,64.70
2018-04-22T02:44:04.866Z,65.60
2018-04-22T02:46:32.369Z,65.50
2018-04-22T02:49:00.621Z,63.30
2018-04-22T02:51:28.127Z,63.20
2018-04-22T02:53:55.615Z,62.70
2018-04-22T02:56:23.122Z,62.90
2018-04-22T02:58:51.381Z,62.00
2018-04-22T03:01:18.893Z,62.00
2018-04-22T03:03:46.387Z,61.40
2018-04-22T03:06:13.880Z,61.40
2018-04-22T03:08:42.122Z,63.00
2018-04-22T03:11:09.617Z,62.80
2018-04-22T03:13:37.113Z,61.30
2018-04-22T03:16:04.621Z,62.20
2018-04-22T03:18:32.885Z,63.20
2018-04-22T03:21:00.365Z,63.20
2018-04-22T03:23:29.208Z,61.90
2018-04-22T03:25:56.703Z,61.80
2018-04-22T03:28:25.026Z,61.40
2018-04-22T03:30:52.507Z,61.40
2018-04-22T03:33:20.002Z,61.00
2018-04-22T03:35:48.289Z,61.30
2018-04-22T03:38:15.824Z,61.20
2018-04-22T03:40:44.106Z,60.20
2018-04-22T03:43:12.365Z,60.50
2018-04-22T03:45:39.845Z,60.50
2018-04-22T03:48:08.117Z,61.70
2018-04-22T03:50:36.381Z,62.80
2018-04-22T03:53:03.912Z,62.60
2018-04-22T03:55:31.433Z,63.10
2018-04-22T03:57:58.915Z,63.70
2018-04-22T04:00:26.403Z,64.70
2018-04-22T04:02:53.877Z,65.10
2018-04-22T04:05:21.339Z,65.70
2018-04-22T04:07:48.844Z,66.40
2018-04-22T04:10:16.314Z,66.10
2018-04-22T04:12:43.804Z,66.10
2018-04-22T04:15:11.273Z,66.30
2018-04-22T04:17:39.513Z,66.50
2018-04-22T05:42:16.130Z,64.20
2018-04-22T05:44:44.489Z,64.50
2018-04-22T05:47:11.983Z,65.10
2018-04-22T05:49:39.538Z,64.70
2018-04-22T05:52:07.023Z,64.40
2018-04-22T05:54:34.514Z,63.20
2018-04-22T05:57:02.045Z,63.00
2018-04-22T05:59:30.292Z,63.40
2018-04-22T06:01:57.783Z,63.40
2018-04-22T06:04:25.236Z,63.00
2018-04-22T06:06:52.703Z,62.90
2018-04-22T06:09:20.932Z,63.90
2018-04-22T06:11:48.411Z,63.90
2018-04-22T06:14:15.885Z,65.10
2018-04-22T06:16:43.383Z,66.60
2018-04-22T06:19:10.851Z,66.20
2018-04-22T06:21:38.328Z,64.60
2018-04-22T06:24:05.825Z,65.20
2018-04-22T06:26:34.059Z,63.10
2018-04-22T06:29:01.533Z,63.10
2018-04-22T06:31:29.012Z,62.20
2018-04-22T06:33:57.247Z,61.70
2018-04-22T06:36:24.723Z,61.60
2018-04-22T06:38:52.179Z,63.40
2018-04-22T06:41:19.664Z,60.70
2018-04-22T06:43:47.896Z,61.00
2018-04-22T06:46:15.360Z,61.00
2018-04-22T06:48:42.819Z,59.10
2018-04-22T06:51:10.305Z,59.00
2018-04-22T06:53:37.772Z,59.60
2018-04-22T06:56:06.032Z,57.90
2018-04-22T06:58:33.506Z,57.80
2018-04-22T07:01:01.762Z,59.10
2018-04-22T07:03:29.784Z,59.00
2018-04-22T07:05:57.254Z,60.00
2018-04-22T07:08:24.704Z,59.80
2018-04-22T07:10:52.184Z,58.30
2018-04-22T07:13:19.635Z,57.60
2018-04-22T07:15:47.090Z,57.50
2018-04-22T07:18:14.567Z,56.00
2018-04-22T07:20:42.009Z,56.90
2018-04-22T07:23:09.478Z,57.60
2018-04-22T07:25:36.940Z,57.30
2018-04-22T07:28:04.410Z,58.00
2018-04-22T07:30:31.855Z,55.30
2018-04-22T07:32:59.321Z,53.90
2018-04-22T07:35:26.785Z,53.90
2018-04-22T07:37:54.284Z,54.30
2018-04-22T07:40:21.792Z,54.70
2018-04-22T07:42:49.280Z,51.40
2018-04-22T07:45:17.509Z,51.80
2018-04-22T07:47:44.972Z,51.80
2018-04-22T07:50:12.425Z,51.70
2018-04-22T07:52:39.889Z,49.50
2018-04-22T07:55:07.351Z,48.80
2018-04-22T07:57:34.814Z,48.10
2018-04-22T08:00:02.273Z,44.30
2018-04-22T08:02:29.730Z,43.60
2018-04-22T08:04:57.183Z,39.20
2018-04-22T08:07:24.645Z,38.50
2018-04-22T08:09:52.118Z,36.40
2018-04-22T08:12:20.349Z,31.60
2018-04-22T08:14:47.821Z,31.50
2018-04-22T08:17:15.401Z,31.90
2018-04-22T08:19:42.876Z,31.40
2018-04-22T08:22:11.097Z,30.20
2018-04-22T08:24:38.564Z,29.80
2018-04-22T08:27:06.018Z,30.20
2018-04-22T08:29:33.498Z,31.10
2018-04-22T08:32:01.645Z,29.30
2018-04-22T08:34:29.108Z,30.30
2018-04-22T08:36:56.583Z,29.70
2018-04-22T08:39:24.053Z,30.30
2018-04-22T08:41:51.534Z,29.50
2018-04-22T08:44:19.765Z,30.70
2018-04-22T08:46:47.225Z,30.70
2018-04-22T08:49:14.693Z,29.40
2018-04-22T08:51:42.153Z,28.80
2018-04-22T08:54:09.612Z,30.20
2018-04-22T08:56:37.109Z,27.40
2018-04-22T08:59:04.537Z,27.80
2018-04-22T09:01:31.997Z,28.00
2018-04-22T09:04:00.229Z,29.30
2018-04-22T09:06:27.684Z,29.30
2018-04-22T09:08:55.151Z,28.10
2018-04-22T09:11:22.601Z,28.60
2018-04-22T09:13:50.067Z,29.20
2018-04-22T09:16:17.532Z,27.50
2018-04-22T09:18:44.991Z,29.10
2018-04-22T09:21:12.449Z,29.90
2018-04-22T09:23:39.927Z,27.20
2018-04-22T09:26:07.380Z,27.30
2018-04-22T09:28:34.852Z,28.30
2018-04-22T09:31:03.415Z,26.40
2018-04-22T09:33:30.850Z,26.40
2018-04-22T09:35:58.317Z,28.10
2018-04-22T09:38:25.816Z,28.10
2018-04-22T09:40:53.239Z,27.90
2018-04-22T09:43:20.693Z,27.80
2018-04-22T09:45:48.147Z,27.50
2018-04-22T09:48:15.607Z,26.80
2018-04-22T09:50:43.066Z,25.30
2018-04-22T09:53:10.510Z,26.00
2018-04-22T09:55:38.025Z,26.80
2018-04-22T09:58:05.410Z,28.50
2018-04-22T10:00:32.870Z,28.80
2018-04-22T10:03:06.776Z,28.30
2018-04-22T10:05:39.877Z,28.80
2018-04-22T10:08:07.329Z,28.60
2018-04-22T10:10:34.785Z,27.10
2018-04-22T10:13:02.223Z,27.00
2018-04-22T10:15:29.684Z,26.80
2018-04-22T10:17:57.125Z,28.10
2018-04-22T10:20:24.572Z,28.00
2018-04-22T10:22:52.784Z,27.30
2018-04-22T10:25:20.323Z,27.30
2018-04-22T10:27:47.893Z,28.00
2018-04-22T10:30:15.310Z,28.10
2018-04-22T10:32:42.739Z,26.90
2018-04-22T10:35:10.220Z,26.40
2018-04-22T10:37:37.656Z,27.00
2018-04-22T10:40:05.138Z,27.40
2018-04-22T10:42:32.554Z,27.00
2018-04-22T10:45:00.000Z,27.80
2018-04-22T10:47:27.458Z,27.30
2018-04-22T10:49:54.899Z,27.30
2018-04-22T10:52:22.354Z,26.90
2018-04-22T10:54:49.827Z,26.50
2018-04-22T10:57:17.272Z,26.70
2018-04-22T10:59:44.735Z,26.30
2018-04-22T11:02:12.192Z,26.70
2018-04-22T11:04:39.667Z,25.80
2018-04-22T11:09:41.108Z,26.30
2018-04-22T11:12:08.568Z,26.80
2018-04-22T11:14:36.024Z,26.10
2018-04-22T11:17:03.483Z,26.60
2018-04-22T11:19:30.940Z,28.20
2018-04-22T11:21:58.395Z,25.60
2018-04-22T11:24:25.856Z,26.90
2018-04-22T11:26:53.318Z,27.30
2018-04-22T11:29:20.761Z,25.70
2018-04-22T11:31:48.219Z,25.00
2018-04-22T11:34:15.667Z,25.90
2018-04-22T11:36:43.892Z,25.20
2018-04-22T11:39:11.335Z,25.10
2018-04-22T11:41:38.790Z,25.20
2018-04-22T11:44:06.400Z,26.00
2018-04-22T11:46:33.866Z,26.50
2018-04-22T11:49:02.104Z,27.40
2018-04-22T11:51:29.572Z,27.40
2018-04-22T11:53:57.037Z,25.70
2018-04-22T11:56:24.496Z,24.70
2018-04-22T11:58:51.967Z,24.80
2018-04-22T12:01:20.200Z,23.60
2018-04-22T12:03:47.676Z,23.60
2018-04-22T12:06:15.123Z,23.60
2018-04-22T12:08:42.576Z,24.90
2018-04-22T12:11:10.025Z,24.10
2018-04-22T12:13:37.476Z,25.60
2018-04-22T12:16:04.932Z,25.90
2018-04-22T12:18:32.420Z,25.70
2018-04-22T12:20:59.867Z,27.40
2018-04-22T12:23:27.347Z,25.60
2018-04-22T12:25:55.037Z,25.50
2018-04-22T12:28:23.253Z,26.00
2018-04-22T12:30:50.692Z,25.50
2018-04-22T12:33:18.153Z,26.80
2018-04-22T12:35:45.593Z,25.50
2018-04-22T12:38:13.139Z,23.80
2018-04-22T12:40:41.340Z,23.60
2018-04-22T12:43:08.889Z,23.60
2018-04-22T12:45:36.345Z,24.80
2018-04-22T12:48:03.793Z,25.90
2018-04-22T12:50:31.999Z,26.20
2018-04-22T12:52:59.452Z,26.20
2018-04-22T12:55:26.899Z,27.10
2018-04-22T12:57:54.356Z,26.10
2018-04-22T13:00:21.810Z,25.00
2018-04-22T13:02:49.285Z,25.20
2018-04-22T13:05:16.729Z,27.00
2018-04-22T13:07:44.188Z,26.30
2018-04-22T13:10:11.627Z,25.10
2018-04-22T13:12:39.129Z,25.30
2018-04-22T13:15:06.566Z,26.30
2018-04-22T13:17:34.008Z,25.30
2018-04-22T13:20:01.460Z,25.90
2018-04-22T13:22:28.900Z,26.00
2018-04-22T13:24:56.351Z,23.70
2018-04-22T13:27:24.569Z,23.00
2018-04-22T13:29:52.011Z,22.90
2018-04-22T13:32:19.456Z,24.60
2018-04-22T13:34:47.675Z,24.10
2018-04-22T13:37:15.135Z,24.10
2018-04-22T13:39:42.592Z,25.20
2018-04-22T13:42:10.045Z,25.70
2018-04-22T13:44:37.491Z,24.50
2018-04-22T13:47:04.928Z,25.60
2018-04-22T13:49:32.371Z,25.90
2018-04-22T13:52:00.589Z,24.30
2018-04-22T13:54:28.129Z,24.30
2018-04-22T13:56:55.495Z,24.50
2018-04-22T13:59:22.949Z,25.00
2018-04-22T14:01:50.387Z,25.70
2018-04-22T14:04:17.839Z,26.60
2018-04-22T14:06:45.283Z,26.90
2018-04-22T14:09:13.510Z,25.20
2018-04-22T14:11:40.964Z,25.20
2018-04-22T14:14:08.394Z,25.00
2018-04-22T14:16:35.851Z,24.20
2018-04-22T14:19:03.294Z,25.10
2018-04-22T14:21:31.563Z,24.10
2018-04-22T14:23:59.773Z,25.00
2018-04-22T14:26:27.239Z,25.00
2018-04-22T14:28:54.686Z,26.20
2018-04-22T14:31:22.142Z,24.40
2018-04-22T14:33:49.581Z,24.20
2018-04-22T14:38:51.790Z,24.90
2018-04-22T14:41:19.240Z,24.80
2018-04-22T14:43:58.524Z,24.40
2018-04-22T14:46:25.996Z,24.80
2018-04-22T14:49:05.055Z,26.60
2018-04-22T14:51:33.258Z,25.30
2018-04-22T14:54:00.699Z,25.20
2018-04-22T14:56:28.161Z,24.70
2018-04-22T14:58:55.612Z,25.00
2018-04-22T15:01:23.070Z,25.40
2018-04-22T15:03:50.524Z,25.40
2018-04-22T15:06:17.983Z,25.70
2018-04-22T15:08:45.415Z,25.50
2018-04-22T15:11:13.672Z,24.20
2018-04-22T15:13:41.106Z,24.20
2018-04-22T15:16:08.557Z,25.50
2018-04-22T15:18:35.993Z,25.70
2018-04-22T15:21:03.442Z,25.10
2018-04-22T15:23:30.880Z,26.30
2018-04-22T15:25:58.333Z,25.50
2018-04-22T15:28:26.547Z,26.00
2018-04-22T15:30:53.996Z,26.00
2018-04-22T15:33:21.435Z,26.40
2018-04-22T15:35:48.894Z,26.70
2018-04-22T15:38:16.336Z,26.70
2018-04-22T15:40:44.548Z,26.40
2018-04-22T15:43:11.996Z,26.40
2018-04-22T15:45:39.435Z,26.80
2018-04-22T15:48:06.889Z,27.40
2018-04-22T15:50:34.329Z,25.50
2018-04-22T15:53:02.548Z,25.10
2018-04-22T15:55:29.986Z,25.00
2018-04-22T15:57:57.444Z,26.10
2018-04-22T16:00:24.882Z,27.40
2018-04-22T16:02:53.090Z,28.00
2018-04-22T16:05:20.539Z,28.00
2018-04-22T16:07:47.979Z,28.10
2018-04-22T16:10:15.443Z,28.70
2018-04-22T16:12:42.921Z,29.40
2018-04-22T16:15:10.352Z,31.30
2018-04-22T16:17:37.804Z,29.60
2018-04-22T16:20:06.008Z,29.10
2018-04-22T16:22:33.461Z,29.00
2018-04-22T16:25:00.902Z,29.60
2018-04-22T16:27:28.348Z,29.40
2018-04-22T16:29:56.552Z,29.40
2018-04-22T16:32:24.010Z,29.40
2018-04-22T16:34:51.447Z,30.40
2018-04-22T16:37:18.899Z,33.40
2018-04-22T16:39:47.110Z,33.40
2018-04-22T16:42:18.169Z,33.40
2018-04-22T16:44:50.047Z,34.20
2018-04-22T16:47:17.557Z,35.10
2018-04-22T16:49:45.005Z,36.10
2018-04-22T16:52:14.689Z,35.60
2018-04-22T16:54:52.702Z,34.10
2018-04-22T16:57:22.289Z,37.30
2018-04-22T16:59:51.332Z,37.30
2018-04-22T17:02:19.940Z,37.50
2018-04-22T17:04:47.566Z,38.40
2018-04-22T17:07:15.062Z,39.00
2018-04-22T17:09:42.610Z,37.30
2018-04-22T17:12:10.299Z,38.00
2018-04-22T17:14:38.233Z,36.40
2018-04-22T17:17:06.846Z,37.80
2018-04-22T17:19:34.367Z,37.30
2018-04-22T17:22:01.977Z,37.30
2018-04-22T17:24:41.240Z,37.90
2018-04-22T17:27:10.685Z,36.70
2018-04-22T17:29:38.169Z,36.60
2018-04-22T17:32:07.021Z,36.90
2018-04-22T17:34:35.390Z,35.40
2018-04-22T17:39:38.207Z,36.20
2018-04-22T17:42:06.968Z,36.20
2018-04-22T17:44:35.344Z,36.50
2018-04-22T17:47:02.897Z,36.40
2018-04-22T17:49:31.475Z,36.20
2018-04-22T17:51:58.955Z,36.00
2018-04-22T17:54:26.410Z,35.30
2018-04-22T17:56:54.083Z,34.50
2018-04-22T17:59:21.582Z,35.50
2018-04-22T18:01:49.533Z,35.00
2018-04-22T18:04:17.705Z,36.70
2018-04-22T18:06:45.145Z,36.60
2018-04-22T18:09:12.605Z,37.10
2018-04-22T18:11:40.373Z,37.20
2018-04-22T18:14:07.835Z,37.50
2018-04-22T18:16:35.294Z,37.60
2018-04-22T18:19:02.820Z,38.10
2018-04-22T18:21:34.363Z,38.60
2018-04-22T18:24:02.906Z,38.60
2018-04-22T18:26:30.362Z,38.50
2018-04-22T18:28:58.758Z,40.80
2018-04-22T18:31:26.210Z,40.40
2018-04-22T18:33:53.947Z,41.30
2018-04-22T18:36:21.680Z,42.10
2018-04-22T18:38:49.114Z,42.10
2018-04-22T18:41:18.299Z,42.10
2018-04-22T18:43:46.538Z,42.60
2018-04-22T18:46:14.000Z,42.60
2018-04-22T18:48:41.468Z,42.50
2018-04-22T18:51:08.924Z,42.70
2018-04-22T18:53:36.365Z,43.20
2018-04-22T18:56:03.827Z,43.10
2018-04-22T18:58:31.263Z,43.50
2018-04-22T19:00:58.728Z,43.90
2018-04-22T19:03:26.883Z,44.20
2018-04-22T19:05:54.327Z,44.30
2018-04-22T19:08:22.546Z,44.20
2018-04-22T19:10:50.009Z,44.10
2018-04-22T19:13:17.460Z,44.30
2018-04-22T19:15:44.919Z,44.40
2018-04-22T19:18:12.553Z,44.00
2018-04-22T19:20:41.015Z,44.20
2018-04-22T19:23:09.277Z,44.50
2018-04-22T19:25:36.687Z,44.40
2018-04-22T19:28:04.142Z,43.80
2018-04-22T19:30:31.588Z,43.60
2018-04-22T19:32:59.041Z,43.70
2018-04-22T19:35:26.483Z,43.60
2018-04-22T19:37:53.939Z,43.90
2018-04-22T19:40:22.191Z,43.80
2018-04-22T19:42:49.590Z,43.70
2018-04-22T19:45:17.029Z,43.80
2018-04-22T19:47:45.244Z,44.20
2018-04-22T19:50:12.709Z,44.10
2018-04-22T19:52:40.919Z,44.20
2018-04-22T19:55:09.129Z,44.30
2018-04-22T19:57:36.596Z,44.30
2018-04-22T20:00:04.028Z,44.20
2018-04-22T20:02:32.245Z,44.70
2018-04-22T20:04:59.683Z,44.60
2018-04-22T20:07:27.135Z,44.60
2018-04-22T20:09:54.598Z,44.30
2018-04-22T20:12:22.035Z,44.60
2018-04-22T20:14:49.482Z,44.60
2018-04-22T20:17:17.703Z,45.10
2018-04-22T20:19:45.148Z,44.90
2018-04-22T20:22:12.628Z,45.10
2018-04-22T20:24:40.068Z,45.70
2018-04-22T20:27:07.524Z,45.70
2018-04-22T20:29:34.971Z,46.00
2018-04-22T20:32:02.546Z,45.90
2018-04-22T20:34:29.977Z,45.80
2018-04-22T20:36:57.441Z,45.80
2018-04-22T20:39:24.910Z,45.60
2018-04-22T20:41:52.354Z,45.50
2018-04-22T20:44:19.807Z,45.80
2018-04-22T20:46:47.259Z,45.80
2018-04-22T20:49:14.713Z,46.00
2018-04-22T20:51:42.155Z,46.00
2018-04-22T20:54:10.380Z,46.20
2018-04-22T20:56:37.823Z,46.20
2018-04-22T20:59:05.271Z,46.30
2018-04-22T21:01:32.705Z,46.50
2018-04-22T21:04:00.924Z,46.60
2018-04-22T21:06:28.368Z,46.60
2018-04-22T21:08:55.820Z,46.70
2018-04-22T21:11:23.282Z,46.80
2018-04-22T21:13:50.721Z,46.80
2018-04-22T21:16:18.166Z,46.80
2018-04-22T21:18:46.384Z,46.90
2018-04-22T21:21:13.827Z,46.90
2018-04-22T21:23:41.277Z,46.70
2018-04-22T21:26:08.733Z,46.50
2018-04-22T21:28:36.193Z,46.30
2018-04-22T21:31:03.623Z,45.90
2018-04-22T21:33:31.846Z,45.40
2018-04-22T21:35:59.288Z,45.40
2018-04-22T21:38:26.751Z,45.40
2018-04-22T21:40:54.187Z,45.10
2018-04-22T21:43:22.388Z,44.90
2018-04-22T21:45:49.843Z,44.90
2018-04-22T21:48:17.283Z,45.40
2018-04-22T21:50:44.731Z,45.00
2018-04-22T21:53:12.167Z,44.40
2018-04-22T21:58:14.392Z,44.10
2018-04-22T22:00:41.843Z,44.00
2018-04-22T22:03:09.288Z,44.00
2018-04-22T22:05:36.747Z,43.30
2018-04-22T22:08:04.184Z,42.90
2018-04-22T22:10:32.399Z,42.70
2018-04-22T22:12:59.840Z,42.60
2018-04-22T22:15:27.293Z,42.50
2018-04-22T22:17:54.732Z,42.00
2018-04-22T22:20:22.947Z,42.00
2018-04-22T22:22:50.405Z,41.90
2018-04-22T22:25:17.868Z,42.10
2018-04-22T22:27:45.303Z,41.80
2018-04-22T22:30:12.754Z,41.90
2018-04-22T22:32:40.195Z,41.70
2018-04-22T22:35:08.411Z,41.60
2018-04-22T22:37:35.871Z,41.60
2018-04-22T22:40:03.319Z,41.70
2018-04-22T22:42:30.764Z,42.30
2018-04-22T22:44:58.236Z,42.30
2018-04-22T22:47:25.679Z,42.70
2018-04-22T22:49:53.116Z,42.60
2018-04-22T22:52:21.335Z,42.40
2018-04-22T22:54:48.797Z,42.30
2018-04-22T22:57:16.239Z,42.20
2018-04-22T22:59:43.685Z,42.20
2018-04-22T23:02:11.145Z,42.50
2018-04-22T23:04:38.585Z,42.60
2018-04-22T23:07:06.798Z,41.50
2018-04-22T23:09:34.254Z,41.50
2018-04-22T23:12:01.699Z,41.70
2018-04-22T23:14:29.162Z,42.40
2018-04-22T23:16:56.616Z,41.00
2018-04-22T23:19:24.057Z,41.20
2018-04-22T23:21:51.508Z,40.80
2018-04-22T23:24:18.948Z,41.30
2018-04-22T23:26:47.160Z,43.10
2018-04-22T23:29:14.601Z,43.10
2018-04-22T23:31:42.054Z,44.40
2018-04-22T23:34:10.258Z,44.60
2018-04-22T23:36:37.708Z,44.50
2018-04-22T23:39:05.950Z,44.90
2018-04-22T23:41:34.163Z,44.60
2018-04-22T23:44:01.599Z,44.60
2018-04-22T23:46:29.064Z,44.50
2018-04-22T23:48:56.497Z,42.50
2018-04-22T23:51:24.720Z,42.30
2018-04-22T23:53:52.148Z,42.20
2018-04-22T23:56:19.604Z,42.90
2018-04-22T23:58:47.056Z,42.90
